createdAt,value
2022-12-08T00:00:43.371Z,94462.91
2022-12-08T00:02:45.426Z,94470.41
2022-12-08T00:05:06.340Z,94470.75
2022-12-08T00:07:27.639Z,94469.72
2022-12-08T00:09:38.700Z,94475.63
2022-12-08T00:11:44.447Z,94474.88
2022-12-08T00:13:46.521Z,94472.72
2022-12-08T00:15:48.177Z,94485.19
2022-12-08T00:17:49.751Z,94495.84
2022-12-08T00:19:51.364Z,94495.28
2022-12-08T00:21:53.649Z,94489.00
2022-12-08T00:23:56.300Z,94485.84
2022-12-08T00:26:02.341Z,94496.78
2022-12-08T00:28:04.186Z,94490.78
2022-12-08T00:30:07.082Z,94491.91
2022-12-08T00:32:08.787Z,94493.97
2022-12-08T00:34:12.572Z,94505.59
2022-12-08T00:36:14.774Z,94497.50
2022-12-08T00:38:16.705Z,94497.78
2022-12-08T00:40:18.527Z,94497.38
2022-12-08T00:42:20.164Z,94499.03
2022-12-08T00:44:21.890Z,94502.19
2022-12-08T00:46:23.551Z,94503.03
2022-12-08T00:48:25.337Z,94501.94
2022-12-08T00:50:26.996Z,94494.94
2022-12-08T00:52:28.638Z,94502.16
2022-12-08T00:54:30.316Z,94504.63
2022-12-08T00:56:32.488Z,94505.31
2022-12-08T00:58:34.092Z,94501.78
2022-12-08T01:00:35.904Z,94499.56
2022-12-08T01:02:37.747Z,94488.91
2022-12-08T01:04:39.369Z,94487.66
2022-12-08T01:06:41.905Z,94488.53
2022-12-08T01:08:43.664Z,94486.34
2022-12-08T01:10:45.371Z,94491.28
2022-12-08T01:12:47.036Z,94487.72
2022-12-08T01:14:48.688Z,94489.91
2022-12-08T01:16:50.463Z,94491.84
2022-12-08T01:18:52.395Z,94493.19
2022-12-08T01:20:53.995Z,94495.53
2022-12-08T01:22:55.688Z,94488.66
2022-12-08T01:24:57.409Z,94493.47
2022-12-08T01:26:59.012Z,94486.91
2022-12-08T01:29:00.686Z,94492.09
2022-12-08T01:31:02.783Z,94479.50
2022-12-08T01:33:04.533Z,94478.16
2022-12-08T01:35:06.408Z,94480.59
2022-12-08T01:37:08.115Z,94481.56
2022-12-08T01:39:17.590Z,94482.81
2022-12-08T01:41:24.049Z,94480.31
2022-12-08T01:43:25.884Z,94476.91
2022-12-08T01:45:31.847Z,94470.91
2022-12-08T01:47:42.465Z,94465.69
2022-12-08T01:49:44.142Z,94463.91
2022-12-08T01:51:57.668Z,94459.00
2022-12-08T01:53:59.371Z,94464.03
2022-12-08T01:56:08.629Z,94463.59
2022-12-08T01:58:31.479Z,94459.75
2022-12-08T02:00:33.035Z,94453.75
2022-12-08T02:02:59.412Z,94458.66
2022-12-08T02:05:02.142Z,94463.47
2022-12-08T02:07:07.957Z,94466.19
2022-12-08T02:09:10.207Z,94466.31
2022-12-08T02:11:12.565Z,94463.31
2022-12-08T02:13:16.473Z,94462.91
2022-12-08T02:15:18.082Z,94456.06
2022-12-08T02:17:35.609Z,94458.00
2022-12-08T02:19:58.103Z,94451.97
2022-12-08T02:22:24.190Z,94452.09
2022-12-08T02:24:28.692Z,94451.81
2022-12-08T02:26:53.285Z,94443.75
2022-12-08T02:28:55.061Z,94457.28
2022-12-08T02:31:46.816Z,94467.66
2022-12-08T02:34:03.748Z,94456.91
2022-12-08T02:36:08.391Z,94454.97
2022-12-08T02:38:26.222Z,94455.69
2022-12-08T02:40:33.809Z,94451.69
2022-12-08T02:43:01.106Z,94447.41
2022-12-08T02:45:19.375Z,94446.28
2022-12-08T02:47:22.641Z,94448.19
2022-12-08T02:49:33.863Z,94449.13
2022-12-08T02:51:35.671Z,94455.47
2022-12-08T02:53:37.378Z,94449.69
2022-12-08T02:56:00.790Z,94451.66
2022-12-08T02:58:28.732Z,94443.19
2022-12-08T03:00:38.540Z,94446.84
2022-12-08T03:02:49.258Z,94451.88
2022-12-08T03:04:58.714Z,94449.28
2022-12-08T03:07:09.144Z,94447.94
2022-12-08T03:09:17.866Z,94448.47
2022-12-08T03:12:06.858Z,94454.25
2022-12-08T03:14:10.906Z,94443.56
2022-12-08T03:16:16.996Z,94443.97
2022-12-08T03:18:21.176Z,94447.25
2022-12-08T03:20:25.479Z,94446.03
2022-12-08T03:22:28.050Z,94441.13
2022-12-08T03:24:33.115Z,94442.06
2022-12-08T03:26:41.702Z,94437.31
2022-12-08T03:28:43.374Z,94441.28
2022-12-08T03:30:46.341Z,94443.59
2022-12-08T03:32:53.039Z,94448.66
2022-12-08T03:34:57.070Z,94451.81
2022-12-08T03:37:00.783Z,94443.31
2022-12-08T03:39:02.458Z,94443.25
2022-12-08T03:41:19.460Z,94450.88
2022-12-08T03:43:21.090Z,94450.75
2022-12-08T03:45:22.750Z,94456.09
2022-12-08T03:47:24.417Z,94450.94
2022-12-08T03:49:26.016Z,94448.75
2022-12-08T03:51:27.631Z,94457.25
2022-12-08T03:53:29.297Z,94449.81
2022-12-08T03:55:30.970Z,94458.81
2022-12-08T03:57:32.583Z,94456.22
2022-12-08T03:59:34.453Z,94462.41
2022-12-08T04:01:36.145Z,94460.94
2022-12-08T04:03:37.829Z,94453.44
2022-12-08T04:05:39.628Z,94451.78
2022-12-08T04:07:41.316Z,94456.72
2022-12-08T04:09:43.113Z,94460.94
2022-12-08T04:11:44.791Z,94464.50
2022-12-08T04:13:46.482Z,94468.50
2022-12-08T04:15:48.437Z,94460.41
2022-12-08T04:17:50.230Z,94468.63
2022-12-08T04:19:51.920Z,94466.28
2022-12-08T04:21:53.568Z,94467.69
2022-12-08T04:24:00.873Z,94462.44
2022-12-08T04:26:03.362Z,94458.50
2022-12-08T04:28:05.790Z,94454.81
2022-12-08T04:30:09.984Z,94465.59
2022-12-08T04:32:11.575Z,94463.16
2022-12-08T04:34:13.310Z,94458.09
2022-12-08T04:36:15.175Z,94455.50
2022-12-08T04:38:17.418Z,94465.75
2022-12-08T04:40:19.080Z,94460.84
2022-12-08T04:42:20.943Z,94456.91
2022-12-08T04:44:22.611Z,94460.53
2022-12-08T04:46:24.339Z,94460.66
2022-12-08T04:48:26.025Z,94457.75
2022-12-08T04:50:28.197Z,94469.78
2022-12-08T04:52:29.915Z,94465.41
2022-12-08T04:54:31.727Z,94467.56
2022-12-08T04:56:33.391Z,94482.50
2022-12-08T04:58:35.127Z,94481.19
2022-12-08T05:00:36.855Z,94478.22
2022-12-08T05:02:38.690Z,94470.53
2022-12-08T05:04:40.482Z,94471.91
2022-12-08T05:06:42.131Z,94469.63
2022-12-08T05:08:44.032Z,94473.75
2022-12-08T05:10:45.758Z,94484.44
2022-12-08T05:12:47.426Z,94486.34
2022-12-08T05:14:49.026Z,94490.28
2022-12-08T05:16:50.842Z,94488.13
2022-12-08T05:18:52.503Z,94492.28
2022-12-08T05:20:54.155Z,94482.72
2022-12-08T05:22:55.860Z,94485.50
2022-12-08T05:24:57.505Z,94490.84
2022-12-08T05:26:59.214Z,94491.97
2022-12-08T05:29:01.273Z,94507.81
2022-12-08T05:31:03.002Z,94505.31
2022-12-08T05:33:04.613Z,94492.28
2022-12-08T05:35:06.800Z,94496.31
2022-12-08T05:37:08.454Z,94509.16
2022-12-08T05:39:13.961Z,94511.75
2022-12-08T05:41:18.052Z,94503.00
2022-12-08T05:43:19.928Z,94503.25
2022-12-08T05:45:21.588Z,94502.88
2022-12-08T05:47:23.189Z,94512.34
2022-12-08T05:49:24.861Z,94515.53
2022-12-08T05:51:26.961Z,94508.75
2022-12-08T05:53:28.604Z,94511.75
2022-12-08T05:55:30.451Z,94510.94
2022-12-08T05:57:32.172Z,94512.72
2022-12-08T05:59:33.881Z,94507.25
2022-12-08T06:01:35.671Z,94513.84
2022-12-08T06:03:37.457Z,94517.94
2022-12-08T06:05:41.051Z,94520.28
2022-12-08T06:07:42.777Z,94522.72
2022-12-08T06:09:44.548Z,94523.50
2022-12-08T06:11:47.303Z,94532.78
2022-12-08T06:13:49.789Z,94525.78
2022-12-08T06:15:51.397Z,94520.44
2022-12-08T06:17:53.090Z,94530.81
2022-12-08T06:19:54.722Z,94523.53
2022-12-08T06:21:56.327Z,94531.94
2022-12-08T06:23:58.029Z,94526.78
2022-12-08T06:26:07.639Z,94534.63
2022-12-08T06:28:09.269Z,94535.63
2022-12-08T06:30:11.156Z,94532.06
2022-12-08T06:32:13.081Z,94530.69
2022-12-08T06:34:14.740Z,94530.84
2022-12-08T06:36:18.584Z,94523.75
2022-12-08T06:38:20.179Z,94523.94
2022-12-08T06:40:21.860Z,94526.41
2022-12-08T06:42:41.941Z,94532.88
2022-12-08T06:44:43.824Z,94529.06
2022-12-08T06:46:45.427Z,94527.56
2022-12-08T06:48:47.534Z,94516.41
2022-12-08T06:50:49.162Z,94517.38
2022-12-08T06:53:02.772Z,94521.88
2022-12-08T06:55:07.129Z,94509.44
2022-12-08T06:57:08.756Z,94517.56
2022-12-08T06:59:10.621Z,94517.84
2022-12-08T07:01:13.827Z,94521.81
2022-12-08T07:03:15.583Z,94517.78
2022-12-08T07:05:17.272Z,94527.59
2022-12-08T07:07:18.852Z,94531.44
2022-12-08T07:09:20.728Z,94548.81
2022-12-08T07:11:22.871Z,94548.63
2022-12-08T07:13:24.829Z,94545.88
2022-12-08T07:15:26.462Z,94552.59
2022-12-08T07:17:28.071Z,94560.41
2022-12-08T07:19:29.837Z,94554.47
2022-12-08T07:21:32.688Z,94552.69
2022-12-08T07:23:34.541Z,94559.44
2022-12-08T07:25:36.267Z,94560.75
2022-12-08T07:27:37.848Z,94565.19
2022-12-08T07:29:39.467Z,94571.84
2022-12-08T07:31:41.101Z,94571.38
2022-12-08T07:33:43.235Z,94575.00
2022-12-08T07:35:49.110Z,94573.19
2022-12-08T07:37:51.197Z,94573.56
2022-12-08T07:39:52.809Z,94567.03
2022-12-08T07:41:54.390Z,94565.19
2022-12-08T07:43:56.567Z,94574.81
2022-12-08T07:45:58.223Z,94568.78
2022-12-08T07:47:59.987Z,94562.59
2022-12-08T07:50:01.851Z,94557.25
2022-12-08T07:52:03.751Z,94557.91
2022-12-08T07:54:05.365Z,94562.13
2022-12-08T07:56:08.163Z,94564.03
2022-12-08T07:58:10.820Z,94554.81
2022-12-08T08:00:13.176Z,94556.59
2022-12-08T08:02:24.951Z,94555.19
2022-12-08T08:04:27.596Z,94563.44
2022-12-08T08:06:29.274Z,94571.53
2022-12-08T08:08:31.030Z,94565.78
2022-12-08T08:10:32.711Z,94553.19
2022-12-08T08:12:34.326Z,94558.28
2022-12-08T08:14:36.027Z,94560.50
2022-12-08T08:16:38.789Z,94558.84
2022-12-08T08:18:40.580Z,94559.13
2022-12-08T08:20:42.432Z,94551.16
2022-12-08T08:22:45.771Z,94561.88
2022-12-08T08:24:47.369Z,94564.03
2022-12-08T08:26:49.040Z,94565.25
2022-12-08T08:28:50.634Z,94567.00
2022-12-08T08:30:52.439Z,94571.94
2022-12-08T08:32:54.127Z,94566.03
2022-12-08T08:34:55.743Z,94566.59
2022-12-08T08:36:57.407Z,94570.81
2022-12-08T08:38:59.187Z,94564.50
2022-12-08T08:41:02.976Z,94564.22
2022-12-08T08:43:06.255Z,94552.81
2022-12-08T08:45:08.305Z,94559.00
2022-12-08T08:47:09.928Z,94559.00
2022-12-08T08:49:11.565Z,94556.78
2022-12-08T08:51:14.484Z,94551.88
2022-12-08T08:53:16.158Z,94550.91
2022-12-08T08:55:18.166Z,94543.31
2022-12-08T08:57:25.320Z,94551.00
2022-12-08T08:59:27.986Z,94546.03
2022-12-08T09:01:30.193Z,94539.53
2022-12-08T09:03:32.096Z,94548.66
2022-12-08T09:05:33.692Z,94549.72
2022-12-08T09:07:35.376Z,94546.94
2022-12-08T09:09:37.516Z,94550.06
2022-12-08T09:11:39.115Z,94538.75
2022-12-08T09:13:40.799Z,94531.03
2022-12-08T09:15:42.643Z,94531.97
2022-12-08T09:17:44.596Z,94533.34
2022-12-08T09:19:46.234Z,94529.72
2022-12-08T09:21:47.999Z,94523.00
2022-12-08T09:23:59.233Z,94524.63
2022-12-08T09:26:01.095Z,94523.09
2022-12-08T09:28:02.950Z,94533.63
2022-12-08T09:30:05.306Z,94528.19
2022-12-08T09:32:07.174Z,94529.75
2022-12-08T09:34:09.357Z,94524.91
2022-12-08T09:36:11.219Z,94517.47
2022-12-08T09:38:13.812Z,94519.16
2022-12-08T09:40:18.003Z,94518.34
2022-12-08T09:42:42.548Z,94516.31
2022-12-08T09:45:04.250Z,94521.59
2022-12-08T09:47:14.095Z,94513.16
2022-12-08T09:49:19.104Z,94511.34
2022-12-08T09:51:20.734Z,94509.16
2022-12-08T09:53:43.903Z,94507.47
2022-12-08T09:56:21.120Z,94504.56
2022-12-08T09:58:47.596Z,94497.28
2022-12-08T10:00:49.259Z,94492.41
2022-12-08T10:02:50.981Z,94489.06
2022-12-08T10:04:55.395Z,94485.38
2022-12-08T10:07:04.969Z,94485.22
2022-12-08T10:09:37.162Z,94486.75
2022-12-08T10:11:58.975Z,94479.28
2022-12-08T10:14:25.965Z,94486.56
2022-12-08T10:16:40.958Z,94469.41
2022-12-08T10:18:42.866Z,94473.38
2022-12-08T10:20:47.670Z,94471.50
2022-12-08T10:22:57.205Z,94466.41
2022-12-08T10:25:09.648Z,94464.97
2022-12-08T10:27:12.886Z,94459.28
2022-12-08T10:29:15.212Z,94454.91
2022-12-08T10:31:19.491Z,94457.34
2022-12-08T10:33:22.488Z,94457.50
2022-12-08T10:35:25.366Z,94459.25
2022-12-08T10:37:27.027Z,94454.50
2022-12-08T10:39:31.726Z,94453.69
2022-12-08T10:41:33.337Z,94444.72
2022-12-08T10:43:37.153Z,94441.78
2022-12-08T10:45:41.636Z,94442.44
2022-12-08T10:47:45.518Z,94439.31
2022-12-08T10:49:48.130Z,94439.97
2022-12-08T10:51:49.766Z,94431.28
2022-12-08T10:53:51.457Z,94419.16
2022-12-08T10:56:06.854Z,94424.09
2022-12-08T10:58:36.155Z,94434.66
2022-12-08T11:00:39.225Z,94429.09
2022-12-08T11:02:54.445Z,94421.31
2022-12-08T11:05:00.238Z,94418.06
2022-12-08T11:07:03.574Z,94416.94
2022-12-08T11:09:27.787Z,94413.78
2022-12-08T11:11:56.878Z,94412.66
2022-12-08T11:13:58.672Z,94414.28
2022-12-08T11:16:00.431Z,94412.97
2022-12-08T11:18:09.871Z,94399.88
2022-12-08T11:20:11.713Z,94391.84
2022-12-08T11:22:32.509Z,94391.41
2022-12-08T11:24:37.645Z,94382.69
2022-12-08T11:26:39.839Z,94384.66
2022-12-08T11:28:41.477Z,94391.22
2022-12-08T11:30:47.017Z,94381.09
2022-12-08T11:32:57.378Z,94389.09
2022-12-08T11:35:02.665Z,94387.13
2022-12-08T11:37:05.801Z,94382.03
2022-12-08T11:39:10.806Z,94387.94
2022-12-08T11:41:16.985Z,94394.34
2022-12-08T11:43:21.653Z,94380.75
2022-12-08T11:45:29.384Z,94388.91
2022-12-08T11:47:44.008Z,94379.53
2022-12-08T11:52:00.271Z,94373.19
2022-12-08T11:54:27.854Z,94370.53
2022-12-08T11:56:34.126Z,94368.84
2022-12-08T11:58:42.394Z,94368.00
2022-12-08T12:00:44.259Z,94364.53
2022-12-08T12:02:50.320Z,94365.09
2022-12-08T12:05:46.758Z,94371.06
2022-12-08T12:08:15.766Z,94370.75
2022-12-08T12:10:20.283Z,94371.94
2022-12-08T12:12:39.266Z,94372.66
2022-12-08T12:15:18.954Z,94364.66
2022-12-08T12:17:35.528Z,94371.06
2022-12-08T12:19:39.423Z,94363.06
2022-12-08T12:21:42.635Z,94363.19
2022-12-08T12:23:54.249Z,94359.53
2022-12-08T12:25:59.134Z,94367.34
2022-12-08T12:28:03.812Z,94371.16
2022-12-08T12:30:18.303Z,94351.34
2022-12-08T12:32:20.239Z,94352.94
2022-12-08T12:34:52.336Z,94348.69
2022-12-08T12:36:58.490Z,94351.22
2022-12-08T12:39:01.190Z,94348.53
2022-12-08T12:41:04.431Z,94351.78
2022-12-08T12:43:14.141Z,94350.81
2022-12-08T12:45:21.734Z,94353.72
2022-12-08T12:47:56.619Z,94354.94
2022-12-08T12:50:06.833Z,94360.16
2022-12-08T12:52:21.077Z,94347.72
2022-12-08T12:54:26.972Z,94352.97
2022-12-08T12:56:50.158Z,94337.97
2022-12-08T12:58:53.983Z,94338.31
2022-12-08T13:01:10.547Z,94337.28
2022-12-08T13:03:15.448Z,94328.44
2022-12-08T13:05:24.033Z,94330.72
2022-12-08T13:07:29.055Z,94331.66
2022-12-08T13:09:34.402Z,94327.38
2022-12-08T13:11:48.643Z,94331.13
2022-12-08T13:14:00.278Z,94336.22
2022-12-08T13:16:18.930Z,94340.78
2022-12-08T13:18:25.305Z,94326.00
2022-12-08T13:20:27.077Z,94323.56
2022-12-08T13:22:58.536Z,94324.53
2022-12-08T13:25:38.608Z,94324.84
2022-12-08T13:27:53.071Z,94336.16
2022-12-08T13:30:52.308Z,94338.78
2022-12-08T13:35:21.329Z,94328.56
2022-12-08T13:37:29.536Z,94327.78
2022-12-08T13:39:36.907Z,94318.91
2022-12-08T13:41:41.742Z,94319.25
2022-12-08T13:44:31.116Z,94320.09
2022-12-08T13:47:02.729Z,94313.56
2022-12-08T13:50:36.636Z,94313.75
2022-12-08T13:57:02.571Z,94327.38
2022-12-08T13:59:09.250Z,94327.06
2022-12-08T14:01:19.953Z,94332.28
2022-12-08T14:03:21.793Z,94348.03
2022-12-08T14:05:47.669Z,94348.38
2022-12-08T14:07:48.811Z,94320.63
2022-12-08T14:09:51.330Z,94306.78
2022-12-08T14:12:06.021Z,94315.94
2022-12-08T14:14:09.391Z,94343.28
2022-12-08T14:16:28.473Z,94340.31
2022-12-08T14:18:31.590Z,94339.81
2022-12-08T14:20:51.915Z,94342.25
2022-12-08T14:22:57.393Z,94333.09
2022-12-08T14:24:59.615Z,94332.66
2022-12-08T14:27:04.063Z,94343.59
2022-12-08T14:29:08.867Z,94342.28
2022-12-08T14:31:14.114Z,94342.91
2022-12-08T14:33:17.461Z,94339.34
2022-12-08T14:35:26.471Z,94341.47
2022-12-08T14:37:31.791Z,94337.03
2022-12-08T14:39:33.391Z,94326.09
2022-12-08T14:41:34.993Z,94332.97
2022-12-08T14:43:36.611Z,94327.59
2022-12-08T14:45:41.396Z,94324.81
2022-12-08T14:47:43.314Z,94319.22
2022-12-08T14:49:44.922Z,94329.19
2022-12-08T14:51:46.546Z,94337.72
2022-12-08T14:54:01.027Z,94340.00
2022-12-08T14:56:07.808Z,94344.41
2022-12-08T14:58:17.911Z,94354.06
2022-12-08T15:00:20.766Z,94347.84
2022-12-08T15:02:29.483Z,94339.69
2022-12-08T15:04:31.152Z,94340.81
2022-12-08T15:06:32.804Z,94350.00
2022-12-08T15:08:35.128Z,94353.72
2022-12-08T15:10:39.924Z,94345.25
2022-12-08T15:13:00.250Z,94349.16
2022-12-08T15:15:15.696Z,94343.94
2022-12-08T15:17:33.561Z,94341.47
2022-12-08T15:19:35.264Z,94350.47
2022-12-08T15:21:38.903Z,94339.84
2022-12-08T15:23:45.785Z,94347.53
2022-12-08T15:25:47.646Z,94359.94
2022-12-08T15:27:50.828Z,94356.69
2022-12-08T15:29:53.174Z,94350.13
2022-12-08T15:31:57.402Z,94350.44
2022-12-08T15:33:59.070Z,94346.53
2022-12-08T15:36:00.683Z,94351.59
2022-12-08T15:38:02.386Z,94350.31
2022-12-08T15:40:05.103Z,94347.19
2022-12-08T15:42:12.688Z,94331.81
2022-12-08T15:44:14.269Z,94343.72
2022-12-08T15:46:15.919Z,94357.94
2022-12-08T15:48:23.117Z,94353.03
2022-12-08T15:50:24.704Z,94355.16
2022-12-08T15:52:26.536Z,94347.13
2022-12-08T15:54:28.146Z,94356.72
2022-12-08T15:56:29.843Z,94362.16
2022-12-08T15:58:53.101Z,94364.13
2022-12-08T16:00:55.694Z,94351.06
2022-12-08T16:03:34.104Z,94347.97
2022-12-08T16:05:42.222Z,94349.94
2022-12-08T16:07:42.059Z,94368.75
2022-12-08T16:09:44.003Z,94366.44
2022-12-08T16:12:07.196Z,94354.00
2022-12-08T16:14:54.781Z,94361.69
2022-12-08T16:16:31.303Z,94366.44
2022-12-08T16:18:35.386Z,94386.06
2022-12-08T16:21:06.031Z,94376.72
2022-12-08T16:23:19.421Z,94379.53
2022-12-08T16:25:22.363Z,94373.13
2022-12-08T16:29:50.114Z,94364.28
2022-12-08T16:31:52.218Z,94378.50
2022-12-08T16:33:53.883Z,94376.75
2022-12-08T16:35:55.643Z,94372.81
2022-12-08T16:37:57.596Z,94368.97
2022-12-08T16:39:59.379Z,94378.09
2022-12-08T16:42:19.376Z,94381.06
2022-12-08T16:44:21.283Z,94381.06
2022-12-08T16:46:26.952Z,94363.31
2022-12-08T16:48:28.718Z,94366.53
2022-12-08T16:50:34.902Z,94374.06
2022-12-08T16:52:36.555Z,94366.13
2022-12-08T16:54:38.211Z,94364.84
2022-12-08T16:56:40.000Z,94365.63
2022-12-08T16:58:41.615Z,94365.59
2022-12-08T17:00:43.223Z,94369.84
2022-12-08T17:02:45.380Z,94370.34
2022-12-08T17:04:47.068Z,94367.63
2022-12-08T17:06:50.967Z,94365.75
2022-12-08T17:08:52.635Z,94378.31
2022-12-08T17:11:07.267Z,94375.72
2022-12-08T17:13:09.966Z,94393.19
2022-12-08T17:15:15.796Z,94387.22
2022-12-08T17:17:17.384Z,94362.84
2022-12-08T17:19:19.002Z,94382.84
2022-12-08T17:21:20.805Z,94399.97
2022-12-08T17:23:22.641Z,94370.44
2022-12-08T17:25:27.531Z,94368.41
2022-12-08T17:27:29.274Z,94387.88
2022-12-08T17:29:31.855Z,94376.81
2022-12-08T17:31:33.641Z,94354.16
2022-12-08T17:33:35.526Z,94381.25
2022-12-08T17:35:37.104Z,94398.78
2022-12-08T17:37:38.802Z,94390.47
2022-12-08T17:39:40.574Z,94375.06
2022-12-08T17:41:42.202Z,94389.78
2022-12-08T17:43:43.883Z,94400.28
2022-12-08T17:45:47.465Z,94398.41
2022-12-08T17:47:49.143Z,94393.91
2022-12-08T17:49:50.880Z,94392.56
2022-12-08T17:51:55.162Z,94395.38
2022-12-08T17:53:56.784Z,94403.13
2022-12-08T17:55:58.405Z,94388.41
2022-12-08T17:58:00.682Z,94392.09
2022-12-08T18:00:03.172Z,94395.72
2022-12-08T18:02:05.102Z,94410.72
2022-12-08T18:04:08.232Z,94404.28
2022-12-08T18:06:11.525Z,94390.72
2022-12-08T18:08:13.734Z,94388.66
2022-12-08T18:10:16.007Z,94419.38
2022-12-08T18:12:23.244Z,94423.50
2022-12-08T18:14:25.519Z,94414.47
2022-12-08T18:16:28.013Z,94412.69
2022-12-08T18:18:29.697Z,94404.25
2022-12-08T18:20:31.477Z,94410.34
2022-12-08T18:22:33.115Z,94400.00
2022-12-08T18:24:34.800Z,94406.03
2022-12-08T18:26:36.538Z,94421.41
2022-12-08T18:28:38.801Z,94420.28
2022-12-08T18:30:40.519Z,94420.75
2022-12-08T18:32:42.236Z,94424.97
2022-12-08T18:34:44.455Z,94439.69
2022-12-08T18:36:46.047Z,94427.78
2022-12-08T18:38:47.871Z,94430.41
2022-12-08T18:40:49.559Z,94427.69
2022-12-08T18:42:51.256Z,94435.53
2022-12-08T18:45:13.487Z,94430.66
2022-12-08T18:47:17.969Z,94432.28
2022-12-08T18:49:19.879Z,94444.22
2022-12-08T18:51:24.442Z,94443.59
2022-12-08T18:53:26.078Z,94444.84
2022-12-08T18:55:27.650Z,94441.44
2022-12-08T18:57:29.367Z,94436.94
2022-12-08T18:59:31.026Z,94436.88
2022-12-08T19:01:33.965Z,94428.38
2022-12-08T19:03:35.762Z,94430.25
2022-12-08T19:05:37.533Z,94428.44
2022-12-08T19:07:39.247Z,94418.97
2022-12-08T19:09:42.141Z,94429.22
2022-12-08T19:11:44.180Z,94425.94
2022-12-08T19:13:46.611Z,94417.25
2022-12-08T19:15:48.465Z,94425.50
2022-12-08T19:17:50.143Z,94429.06
2022-12-08T19:19:52.073Z,94419.00
2022-12-08T19:21:53.789Z,94420.63
2022-12-08T19:23:58.350Z,94410.19
2022-12-08T19:26:00.921Z,94418.34
2022-12-08T19:28:02.719Z,94421.50
2022-12-08T19:30:05.286Z,94426.84
2022-12-08T19:32:07.414Z,94416.38
2022-12-08T19:34:10.508Z,94427.59
2022-12-08T19:36:16.021Z,94438.16
2022-12-08T19:38:17.681Z,94438.22
2022-12-08T19:40:37.847Z,94452.00
2022-12-08T19:42:58.332Z,94458.03
2022-12-08T19:45:07.557Z,94460.00
2022-12-08T19:47:09.567Z,94454.34
2022-12-08T19:49:11.274Z,94460.69
2022-12-08T19:51:12.951Z,94468.88
2022-12-08T19:53:15.582Z,94471.78
2022-12-08T19:55:17.244Z,94464.16
2022-12-08T19:57:20.623Z,94466.25
2022-12-08T19:59:25.284Z,94463.53
2022-12-08T20:01:27.049Z,94451.00
2022-12-08T20:03:28.937Z,94453.13
2022-12-08T20:05:31.922Z,94458.13
2022-12-08T20:07:33.929Z,94472.63
2022-12-08T20:09:35.798Z,94486.03
2022-12-08T20:11:38.256Z,94489.56
2022-12-08T20:13:44.699Z,94497.25
2022-12-08T20:15:46.639Z,94497.38
2022-12-08T20:17:48.384Z,94506.31
2022-12-08T20:19:50.212Z,94524.00
2022-12-08T20:21:51.963Z,94520.88
2022-12-08T20:23:53.991Z,94514.47
2022-12-08T20:25:55.685Z,94517.47
2022-12-08T20:27:57.446Z,94516.88
2022-12-08T20:29:59.064Z,94495.25
2022-12-08T20:32:00.803Z,94490.69
2022-12-08T20:34:02.653Z,94486.34
2022-12-08T20:36:05.683Z,94482.19
2022-12-08T20:38:07.312Z,94484.78
2022-12-08T20:40:09.394Z,94483.66
2022-12-08T20:42:14.149Z,94481.91
2022-12-08T20:44:15.855Z,94467.72
2022-12-08T20:46:18.268Z,94458.63
2022-12-08T20:48:19.900Z,94453.41
2022-12-08T20:50:21.651Z,94457.38
2022-12-08T20:52:23.332Z,94495.59
2022-12-08T20:54:25.172Z,94506.25
2022-12-08T20:56:27.405Z,94504.69
2022-12-08T20:58:29.253Z,94505.13
2022-12-08T21:00:31.029Z,94490.63
2022-12-08T21:02:32.954Z,94508.84
2022-12-08T21:04:35.198Z,94503.47
2022-12-08T21:06:36.941Z,94496.81
2022-12-08T21:08:39.795Z,94511.63
2022-12-08T21:10:43.930Z,94517.88
2022-12-08T21:12:46.132Z,94512.78
2022-12-08T21:14:48.026Z,94512.22
2022-12-08T21:16:50.972Z,94510.66
2022-12-08T21:18:52.990Z,94511.03
2022-12-08T21:21:06.480Z,94504.13
2022-12-08T21:23:08.631Z,94512.16
2022-12-08T21:25:10.484Z,94499.34
2022-12-08T21:27:12.276Z,94510.97
2022-12-08T21:29:14.060Z,94502.97
2022-12-08T21:31:18.302Z,94494.63
2022-12-08T21:33:20.283Z,94507.47
2022-12-08T21:35:22.165Z,94510.75
2022-12-08T21:37:24.568Z,94497.97
2022-12-08T21:39:26.814Z,94503.41
2022-12-08T21:41:47.389Z,94515.63
2022-12-08T21:43:49.113Z,94505.19
2022-12-08T21:45:50.908Z,94505.75
2022-12-08T21:47:52.668Z,94510.28
2022-12-08T21:49:54.485Z,94514.88
2022-12-08T21:51:56.616Z,94506.13
2022-12-08T21:53:58.349Z,94508.25
2022-12-08T21:56:00.162Z,94516.06
2022-12-08T21:58:02.333Z,94510.00
2022-12-08T22:00:06.856Z,94513.03
2022-12-08T22:02:14.699Z,94502.69
2022-12-08T22:04:21.924Z,94516.91
2022-12-08T22:06:23.711Z,94515.56
2022-12-08T22:08:25.534Z,94523.88
2022-12-08T22:10:27.722Z,94531.03
2022-12-08T22:12:29.461Z,94515.09
2022-12-08T22:14:31.353Z,94508.34
2022-12-08T22:16:33.188Z,94508.03
2022-12-08T22:18:35.728Z,94502.47
2022-12-08T22:20:43.717Z,94514.41
2022-12-08T22:22:46.913Z,94517.69
2022-12-08T22:24:48.680Z,94516.44
2022-12-08T22:26:50.369Z,94517.13
2022-12-08T22:28:52.327Z,94529.72
2022-12-08T22:30:53.967Z,94530.38
2022-12-08T22:32:55.597Z,94528.19
2022-12-08T22:34:57.416Z,94530.34
2022-12-08T22:36:59.107Z,94521.56
2022-12-08T22:39:02.023Z,94531.03
2022-12-08T22:41:05.059Z,94520.88
2022-12-08T22:43:06.726Z,94527.31
2022-12-08T22:45:09.244Z,94520.97
2022-12-08T22:47:11.427Z,94514.84
2022-12-08T22:49:13.150Z,94521.00
2022-12-08T22:51:15.177Z,94527.34
2022-12-08T22:53:17.250Z,94518.34
2022-12-08T22:55:18.878Z,94518.47
2022-12-08T22:57:20.476Z,94506.56
2022-12-08T22:59:22.461Z,94503.53
2022-12-08T23:01:26.741Z,94515.91
2022-12-08T23:03:28.778Z,94507.84
2022-12-08T23:05:35.138Z,94505.81
2022-12-08T23:07:37.062Z,94496.38
2022-12-08T23:09:38.733Z,94493.63
2022-12-08T23:11:40.681Z,94497.41
2022-12-08T23:13:42.335Z,94497.28
2022-12-08T23:15:44.022Z,94494.22
2022-12-08T23:17:46.174Z,94483.38
2022-12-08T23:19:47.901Z,94487.19
2022-12-08T23:21:49.730Z,94482.13
2022-12-08T23:23:51.478Z,94489.50
2022-12-08T23:25:53.351Z,94479.75
2022-12-08T23:27:55.214Z,94490.69
2022-12-08T23:29:57.096Z,94495.91
2022-12-08T23:31:59.061Z,94506.78
2022-12-08T23:34:02.101Z,94514.31
2022-12-08T23:36:04.103Z,94515.66
2022-12-08T23:38:05.719Z,94498.16
2022-12-08T23:40:08.286Z,94489.41
2022-12-08T23:42:10.666Z,94508.16
2022-12-08T23:44:12.428Z,94505.81
2022-12-08T23:46:15.801Z,94499.78
2022-12-08T23:48:17.656Z,94502.97
2022-12-08T23:50:19.607Z,94511.69
2022-12-08T23:52:21.242Z,94523.06
2022-12-08T23:54:23.165Z,94533.22
2022-12-08T23:56:30.057Z,94520.56
2022-12-08T23:58:32.908Z,94513.19
